createdAt,value
2018-04-07T00:00:24.264Z,10.79
2018-04-07T00:02:53.259Z,10.78
2018-04-07T00:05:23.181Z,10.81
2018-04-07T00:07:53.322Z,10.82
2018-04-07T00:10:24.107Z,10.77
2018-04-07T00:12:53.199Z,10.81
2018-04-07T00:15:22.261Z,10.85
2018-04-07T00:17:52.035Z,10.81
2018-04-07T00:20:21.266Z,10.81
2018-04-07T00:22:51.250Z,10.85
2018-04-07T00:25:20.186Z,10.85
2018-04-07T00:27:49.142Z,10.91
2018-04-07T00:30:18.885Z,10.98
2018-04-07T00:32:48.934Z,11.00
2018-04-07T00:35:18.275Z,11.03
2018-04-07T00:37:47.474Z,11.10
2018-04-07T00:40:16.667Z,11.08
2018-04-07T00:42:46.353Z,11.11
2018-04-07T00:45:15.371Z,11.12
2018-04-07T00:47:45.958Z,11.13
2018-04-07T00:50:14.972Z,11.13
2018-04-07T00:52:56.008Z,11.15
2018-04-07T00:55:25.075Z,11.10
2018-04-07T00:57:54.115Z,11.15
2018-04-07T01:00:25.792Z,11.14
2018-04-07T01:02:55.460Z,11.17
2018-04-07T01:05:24.955Z,11.24
2018-04-07T01:07:55.774Z,11.32
2018-04-07T01:10:25.927Z,11.32
2018-04-07T01:12:55.896Z,11.23
2018-04-07T01:15:25.939Z,11.21
2018-04-07T01:17:54.926Z,11.19
2018-04-07T01:20:24.122Z,11.21
2018-04-07T01:22:55.853Z,11.14
2018-04-07T01:25:24.876Z,11.12
2018-04-07T01:27:54.077Z,11.18
2018-04-07T01:30:23.276Z,11.21
2018-04-07T01:32:53.194Z,11.24
2018-04-07T01:35:22.236Z,11.31
2018-04-07T01:37:53.650Z,11.34
2018-04-07T01:40:22.935Z,11.36
2018-04-07T01:42:51.963Z,11.40
2018-04-07T01:45:22.752Z,11.46
2018-04-07T01:48:03.713Z,11.39
2018-04-07T01:50:32.831Z,11.36
2018-04-07T01:53:02.760Z,11.43
2018-04-07T01:55:31.804Z,11.40
2018-04-07T01:58:02.421Z,11.45
2018-04-07T02:00:31.491Z,11.44
2018-04-07T02:03:00.675Z,11.46
2018-04-07T02:05:30.635Z,11.46
2018-04-07T02:08:01.542Z,11.47
2018-04-07T02:10:30.629Z,11.42
2018-04-07T02:13:01.673Z,11.37
2018-04-07T02:15:30.743Z,11.30
2018-04-07T02:17:59.969Z,11.28
2018-04-07T02:20:29.205Z,11.30
2018-04-07T02:22:58.361Z,11.30
2018-04-07T02:25:27.545Z,11.27
2018-04-07T02:27:56.612Z,11.31
2018-04-07T02:30:26.592Z,11.37
2018-04-07T02:32:55.558Z,11.32
2018-04-07T02:35:24.768Z,11.33
2018-04-07T02:37:54.822Z,11.40
2018-04-07T02:40:24.328Z,11.43
2018-04-07T02:42:55.911Z,11.47
2018-04-07T02:45:25.931Z,11.40
2018-04-07T02:47:55.099Z,11.42
2018-04-07T02:50:26.578Z,11.42
2018-04-07T02:52:55.790Z,11.48
2018-04-07T02:55:24.886Z,11.48
2018-04-07T02:57:55.757Z,11.40
2018-04-07T03:00:24.761Z,11.32
2018-04-07T03:02:54.760Z,11.32
2018-04-07T03:05:24.251Z,11.28
2018-04-07T03:07:54.031Z,11.23
2018-04-07T03:10:23.106Z,11.26
2018-04-07T03:12:55.550Z,11.18
2018-04-07T03:15:26.517Z,11.23
2018-04-07T03:20:30.701Z,11.34
2018-04-07T03:23:04.525Z,11.34
2018-04-07T03:25:34.425Z,11.42
2018-04-07T03:28:03.471Z,11.41
2018-04-07T03:33:08.081Z,11.61
2018-04-07T03:35:37.798Z,11.75
2018-04-07T03:38:06.830Z,11.74
2018-04-07T03:40:36.485Z,11.80
2018-04-07T03:43:05.684Z,11.92
2018-04-07T03:45:35.434Z,12.01
2018-04-07T03:48:04.652Z,12.04
2018-04-07T03:50:33.733Z,12.04
2018-04-07T03:53:03.801Z,12.05
2018-04-07T03:55:32.863Z,12.08
2018-04-07T03:58:02.753Z,12.15
2018-04-07T04:00:32.543Z,12.17
2018-04-07T04:03:01.534Z,12.23
2018-04-07T04:05:30.638Z,12.29
2018-04-07T04:08:00.648Z,12.33
2018-04-07T04:10:29.735Z,12.63
2018-04-07T04:12:58.727Z,12.84
2018-04-07T04:18:01.639Z,13.29
2018-04-07T04:20:30.666Z,13.47
2018-04-07T04:22:59.737Z,13.55
2018-04-07T04:25:28.660Z,13.64
2018-04-07T04:27:58.644Z,13.84
2018-04-07T04:30:27.830Z,14.10
2018-04-07T04:32:58.066Z,14.23
2018-04-07T04:35:27.625Z,14.23
2018-04-07T04:37:57.591Z,14.39
2018-04-07T04:40:26.594Z,14.42
2018-04-07T04:42:55.785Z,14.41
2018-04-07T04:45:24.984Z,14.36
2018-04-07T04:47:54.015Z,14.37
2018-04-07T04:50:23.011Z,14.57
2018-04-07T04:52:53.883Z,14.61
2018-04-07T04:55:22.849Z,14.43
2018-04-07T04:57:51.937Z,14.40
2018-04-07T05:00:21.603Z,14.35
2018-04-07T05:02:50.738Z,14.43
2018-04-07T05:05:20.727Z,14.38
2018-04-07T05:07:49.818Z,14.50
2018-04-07T05:10:19.635Z,14.42
2018-04-07T05:12:50.268Z,14.43
2018-04-07T05:17:53.878Z,14.48
2018-04-07T05:20:23.806Z,14.43
2018-04-07T05:22:54.850Z,14.60
2018-04-07T05:25:23.836Z,14.57
2018-04-07T05:27:54.502Z,14.48
2018-04-07T05:30:25.136Z,14.54
2018-04-07T05:32:54.929Z,14.63
2018-04-07T05:35:26.512Z,14.67
2018-04-07T05:37:56.628Z,14.69
2018-04-07T05:40:25.893Z,14.62
2018-04-07T05:42:55.840Z,14.61
2018-04-07T05:45:24.911Z,14.51
2018-04-07T05:47:54.005Z,14.59
2018-04-07T05:52:59.833Z,14.58
2018-04-07T05:55:29.075Z,14.68
2018-04-07T05:57:59.052Z,14.75
2018-04-07T06:00:28.190Z,14.84
2018-04-07T06:02:57.280Z,15.05
2018-04-07T06:05:27.122Z,15.04
2018-04-07T06:07:57.576Z,15.08
2018-04-07T06:10:27.167Z,15.32
2018-04-07T06:12:56.260Z,15.35
2018-04-07T06:15:26.078Z,15.48
2018-04-07T06:17:55.073Z,15.72
2018-04-07T06:20:24.860Z,16.12
2018-04-07T06:22:55.214Z,16.34
2018-04-07T06:25:24.471Z,16.33
2018-04-07T06:27:56.162Z,16.28
2018-04-07T06:30:25.279Z,16.54
2018-04-07T06:32:54.256Z,16.77
2018-04-07T06:35:24.847Z,17.07
2018-04-07T06:37:53.711Z,17.10
2018-04-07T06:40:22.883Z,17.28
2018-04-07T06:42:52.527Z,17.50
2018-04-07T06:45:21.548Z,17.56
2018-04-07T06:47:56.583Z,17.56
2018-04-07T06:50:29.490Z,17.62
2018-04-07T06:53:00.275Z,17.90
2018-04-07T06:55:29.306Z,17.96
2018-04-07T06:57:58.201Z,18.33
2018-04-07T07:00:27.316Z,18.56
2018-04-07T07:02:56.280Z,18.80
2018-04-07T07:05:25.547Z,19.31
2018-04-07T07:07:55.201Z,19.36
2018-04-07T07:10:25.050Z,19.36
2018-04-07T07:12:54.186Z,19.33
2018-04-07T07:15:23.601Z,19.45
2018-04-07T07:17:52.872Z,19.37
2018-04-07T07:20:21.870Z,19.46
2018-04-07T07:22:51.076Z,19.28
2018-04-07T07:25:21.035Z,19.07
2018-04-07T07:27:51.553Z,19.00
2018-04-07T07:30:20.452Z,18.64
2018-04-07T07:32:49.517Z,18.78
2018-04-07T07:35:19.172Z,18.51
2018-04-07T07:37:48.210Z,18.46
2018-04-07T07:40:18.184Z,18.59
2018-04-07T07:42:48.808Z,18.56
2018-04-07T07:45:17.992Z,18.53
2018-04-07T07:47:47.192Z,18.71
2018-04-07T07:50:16.256Z,19.06
2018-04-07T07:52:45.176Z,19.18
2018-04-07T07:55:15.364Z,19.13
2018-04-07T08:00:19.592Z,19.31
2018-04-07T08:02:49.568Z,19.31
2018-04-07T08:05:18.657Z,19.28
2018-04-07T08:07:48.175Z,19.31
2018-04-07T08:10:18.135Z,19.33
2018-04-07T08:12:48.769Z,19.35
2018-04-07T08:15:17.897Z,19.57
2018-04-07T08:17:47.669Z,19.59
2018-04-07T08:22:52.057Z,19.43
2018-04-07T08:25:21.522Z,19.36
2018-04-07T08:27:50.727Z,19.43
2018-04-07T08:30:19.816Z,19.56
2018-04-07T08:32:48.919Z,19.49
2018-04-07T08:35:18.727Z,19.62
2018-04-07T08:37:48.248Z,19.69
2018-04-07T08:40:17.940Z,19.51
2018-04-07T08:42:48.119Z,19.41
2018-04-07T08:45:17.160Z,19.58
2018-04-07T08:47:46.034Z,19.36
2018-04-07T08:50:17.761Z,19.33
2018-04-07T08:52:47.008Z,19.42
2018-04-07T08:55:16.313Z,19.28
2018-04-07T09:00:20.955Z,19.20
2018-04-07T09:02:50.068Z,19.09
2018-04-07T09:05:19.032Z,19.39
2018-04-07T09:07:48.328Z,19.60
2018-04-07T09:10:18.616Z,19.81
2018-04-07T09:12:48.597Z,19.85
2018-04-07T09:15:21.688Z,19.88
2018-04-07T09:17:51.813Z,19.91
2018-04-07T09:20:21.097Z,19.83
2018-04-07T09:22:51.628Z,19.61
2018-04-07T09:25:21.040Z,19.42
2018-04-07T09:27:52.869Z,19.28
2018-04-07T09:30:21.761Z,19.47
2018-04-07T09:32:50.729Z,19.53
2018-04-07T09:35:20.901Z,19.50
2018-04-07T09:37:50.508Z,19.35
2018-04-07T09:40:20.231Z,19.23
2018-04-07T09:42:49.177Z,19.01
2018-04-07T09:45:19.376Z,18.95
2018-04-07T09:47:48.326Z,18.89
2018-04-07T09:52:55.691Z,19.20
2018-04-07T09:55:24.876Z,19.47
2018-04-07T09:57:54.579Z,19.47
2018-04-07T10:00:25.480Z,19.44
2018-04-07T10:03:01.545Z,19.38
2018-04-07T10:05:36.880Z,19.31
2018-04-07T10:08:06.884Z,18.88
2018-04-07T10:10:36.103Z,18.84
2018-04-07T10:13:05.409Z,18.65
2018-04-07T10:15:34.494Z,18.61
2018-04-07T10:18:03.493Z,18.64
2018-04-07T10:20:35.558Z,18.60
2018-04-07T10:23:04.495Z,18.70
2018-04-07T10:25:34.225Z,18.93
2018-04-07T10:28:03.570Z,19.14
2018-04-07T10:30:32.573Z,19.14
2018-04-07T10:33:02.282Z,19.19
2018-04-07T10:35:32.338Z,19.16
2018-04-07T10:38:03.546Z,19.32
2018-04-07T10:40:32.642Z,19.12
2018-04-07T10:43:01.834Z,19.10
2018-04-07T10:45:30.931Z,19.26
2018-04-07T10:48:01.663Z,19.38
2018-04-07T10:50:31.528Z,19.07
2018-04-07T10:53:00.717Z,19.34
2018-04-07T10:55:31.310Z,19.21
2018-04-07T10:58:00.496Z,19.22
2018-04-07T11:00:30.453Z,19.36
2018-04-07T11:02:59.552Z,19.54
2018-04-07T11:05:28.531Z,19.50
2018-04-07T11:07:58.452Z,19.45
2018-04-07T11:10:27.499Z,19.47
2018-04-07T11:12:57.231Z,19.49
2018-04-07T11:15:26.277Z,19.51
2018-04-07T11:17:57.166Z,19.31
2018-04-07T11:20:26.265Z,19.03
2018-04-07T11:22:55.364Z,19.15
2018-04-07T11:25:24.370Z,19.04
2018-04-07T11:27:54.711Z,19.14
2018-04-07T11:30:24.283Z,19.19
2018-04-07T11:32:54.239Z,19.33
2018-04-07T11:35:23.399Z,19.23
2018-04-07T11:37:53.217Z,19.31
2018-04-07T11:40:24.084Z,19.47
2018-04-07T11:42:53.141Z,19.41
2018-04-07T11:45:22.245Z,19.35
2018-04-07T11:47:51.482Z,19.44
2018-04-07T11:50:21.451Z,19.49
2018-04-07T11:52:50.650Z,19.50
2018-04-07T11:55:19.939Z,19.26
2018-04-07T11:57:49.368Z,19.23
2018-04-07T12:00:18.338Z,19.36
2018-04-07T12:02:47.253Z,19.42
2018-04-07T12:05:17.275Z,19.52
2018-04-07T12:07:47.408Z,19.50
2018-04-07T12:10:16.665Z,19.43
2018-04-07T12:12:49.718Z,19.54
2018-04-07T12:15:18.898Z,19.56
2018-04-07T12:17:48.968Z,19.39
2018-04-07T12:20:18.913Z,19.44
2018-04-07T12:22:48.108Z,19.62
2018-04-07T12:25:17.214Z,19.50
2018-04-07T12:27:47.163Z,19.39
2018-04-07T12:30:16.317Z,19.43
2018-04-07T12:32:45.625Z,19.47
2018-04-07T12:35:14.826Z,19.40
2018-04-07T12:37:43.754Z,19.25
2018-04-07T12:40:12.811Z,19.21
2018-04-07T12:42:43.060Z,19.17
2018-04-07T12:45:12.375Z,19.16
2018-04-07T12:47:41.474Z,19.24
2018-04-07T12:50:11.350Z,19.11
2018-04-07T12:52:41.987Z,18.88
2018-04-07T12:55:11.074Z,18.57
2018-04-07T12:57:41.010Z,18.64
2018-04-07T13:00:10.240Z,18.36
2018-04-07T13:02:43.132Z,17.98
2018-04-07T13:05:12.991Z,17.61
2018-04-07T13:07:42.928Z,17.24
2018-04-07T13:10:13.942Z,17.24
2018-04-07T13:12:44.068Z,17.16
2018-04-07T13:15:13.203Z,16.95
2018-04-07T13:17:43.035Z,16.94
2018-04-07T13:20:17.853Z,17.10
2018-04-07T13:22:47.259Z,17.07
2018-04-07T13:25:16.454Z,16.98
2018-04-07T13:27:45.763Z,16.84
2018-04-07T13:30:16.354Z,16.89
2018-04-07T13:32:46.384Z,16.83
2018-04-07T13:35:15.474Z,16.68
2018-04-07T13:37:44.522Z,16.49
2018-04-07T13:40:13.454Z,16.60
2018-04-07T13:42:42.386Z,16.51
2018-04-07T13:45:11.607Z,16.40
2018-04-07T13:47:40.584Z,16.39
2018-04-07T13:50:09.986Z,16.16
2018-04-07T13:52:41.770Z,16.26
2018-04-07T13:55:18.051Z,16.04
2018-04-07T13:57:50.261Z,16.05
2018-04-07T14:00:19.264Z,16.06
2018-04-07T14:02:48.277Z,16.06
2018-04-07T14:05:19.959Z,15.91
2018-04-07T14:07:49.097Z,15.65
2018-04-07T14:10:18.894Z,15.37
2018-04-07T14:12:48.750Z,15.44
2018-04-07T14:15:17.736Z,15.50
2018-04-07T14:17:46.828Z,15.35
2018-04-07T14:20:17.790Z,15.11
2018-04-07T14:22:46.861Z,15.13
2018-04-07T14:25:16.178Z,15.05
2018-04-07T14:27:45.326Z,15.05
2018-04-07T14:30:16.478Z,15.10
2018-04-07T14:32:45.465Z,14.97
2018-04-07T14:35:16.183Z,15.10
2018-04-07T14:37:47.277Z,15.07
2018-04-07T14:40:17.242Z,15.05
2018-04-07T14:42:46.475Z,15.04
2018-04-07T14:45:15.488Z,15.03
2018-04-07T14:47:44.585Z,15.09
2018-04-07T14:50:14.513Z,15.13
2018-04-07T14:52:45.642Z,15.05
2018-04-07T14:55:14.850Z,15.05
2018-04-07T14:57:44.251Z,15.03
2018-04-07T15:00:14.097Z,15.10
2018-04-07T15:02:44.044Z,15.15
2018-04-07T15:05:13.384Z,15.02
2018-04-07T15:07:42.809Z,14.92
2018-04-07T15:10:12.805Z,15.02
2018-04-07T15:12:42.580Z,15.02
2018-04-07T15:15:13.470Z,14.98
2018-04-07T15:17:42.412Z,14.96
2018-04-07T15:20:11.498Z,15.14
2018-04-07T15:22:40.556Z,15.16
2018-04-07T15:25:10.356Z,15.07
2018-04-07T15:27:40.960Z,15.12
2018-04-07T15:30:11.686Z,15.05
2018-04-07T15:32:40.688Z,15.12
2018-04-07T15:35:09.826Z,15.06
2018-04-07T15:37:38.872Z,15.05
2018-04-07T15:40:08.974Z,14.96
2018-04-07T15:42:39.047Z,15.02
2018-04-07T15:45:08.366Z,15.01
2018-04-07T15:47:38.334Z,15.02
2018-04-07T15:50:07.626Z,14.93
2018-04-07T15:52:36.880Z,14.93
2018-04-07T15:55:05.928Z,14.92
2018-04-07T15:57:35.840Z,14.94
2018-04-07T16:00:05.757Z,14.95
2018-04-07T16:02:36.457Z,14.92
2018-04-07T16:05:05.588Z,14.94
2018-04-07T16:07:35.907Z,14.89
2018-04-07T16:10:05.324Z,14.97
2018-04-07T16:12:35.452Z,14.95
2018-04-07T16:15:04.842Z,14.97
2018-04-07T16:17:33.945Z,15.00
2018-04-07T16:20:03.330Z,15.06
2018-04-07T16:22:34.199Z,15.00
2018-04-07T16:25:03.928Z,14.98
2018-04-07T16:27:33.815Z,14.98
2018-04-07T16:30:05.733Z,14.98
2018-04-07T16:32:35.515Z,15.02
2018-04-07T16:35:05.427Z,15.00
2018-04-07T16:37:34.796Z,15.01
2018-04-07T16:40:09.658Z,15.00
2018-04-07T16:42:39.932Z,15.02
2018-04-07T16:45:08.995Z,15.00
2018-04-07T16:47:38.071Z,15.01
2018-04-07T16:50:08.441Z,15.01
2018-04-07T16:52:39.520Z,14.97
2018-04-07T16:55:11.431Z,15.02
2018-04-07T16:57:41.607Z,15.02
2018-04-07T17:00:11.745Z,14.95
2018-04-07T17:02:41.882Z,14.89
2018-04-07T17:05:11.097Z,14.75
2018-04-07T17:07:40.280Z,14.66
2018-04-07T17:10:10.161Z,14.58
2018-04-07T17:12:39.393Z,14.54
2018-04-07T17:15:08.351Z,14.42
2018-04-07T17:17:38.141Z,14.41
2018-04-07T17:20:07.154Z,14.39
2018-04-07T17:22:36.325Z,14.35
2018-04-07T17:25:06.242Z,14.32
2018-04-07T17:27:35.299Z,14.26
2018-04-07T17:30:04.462Z,14.18
2018-04-07T17:32:33.627Z,14.07
2018-04-07T17:35:02.569Z,13.93
2018-04-07T17:37:31.481Z,13.86
2018-04-07T17:40:00.872Z,13.80
2018-04-07T17:42:29.886Z,13.68
2018-04-07T17:44:58.834Z,13.73
2018-04-07T17:47:27.881Z,13.67
2018-04-07T17:49:56.934Z,13.65
2018-04-07T17:52:26.925Z,13.60
2018-04-07T17:54:56.797Z,13.47
2018-04-07T17:57:31.695Z,13.49
2018-04-07T18:00:05.185Z,13.48
2018-04-07T18:02:34.316Z,13.48
2018-04-07T18:05:04.309Z,13.50
2018-04-07T18:07:33.507Z,13.54
2018-04-07T18:10:02.483Z,13.56
2018-04-07T18:12:31.826Z,13.61
2018-04-07T18:15:01.661Z,13.63
2018-04-07T18:17:30.946Z,13.64
2018-04-07T18:20:00.116Z,13.58
2018-04-07T18:22:29.444Z,13.60
2018-04-07T18:24:58.665Z,13.55
2018-04-07T18:27:28.666Z,13.55
2018-04-07T18:29:59.599Z,13.61
2018-04-07T18:32:28.634Z,13.58
2018-04-07T18:34:57.899Z,13.59
2018-04-07T18:37:28.945Z,13.64
2018-04-07T18:39:59.199Z,13.74
2018-04-07T18:42:28.224Z,13.71
2018-04-07T18:44:59.600Z,13.73
2018-04-07T18:47:29.328Z,13.73
2018-04-07T18:52:34.275Z,13.73
2018-04-07T18:55:03.275Z,13.73
2018-04-07T18:57:34.519Z,13.75
2018-04-07T19:00:04.389Z,13.80
2018-04-07T19:02:33.483Z,13.83
2018-04-07T19:05:03.609Z,13.85
2018-04-07T19:07:33.186Z,13.88
2018-04-07T19:10:02.358Z,13.94
2018-04-07T19:12:32.381Z,13.94
2018-04-07T19:15:01.369Z,13.95
2018-04-07T19:17:31.220Z,13.94
2018-04-07T19:20:00.443Z,13.95
2018-04-07T19:22:30.049Z,13.99
2018-04-07T19:24:59.339Z,14.00
2018-04-07T19:27:28.418Z,14.02
2018-04-07T19:29:57.702Z,14.07
2018-04-07T19:32:26.898Z,14.06
2018-04-07T19:34:55.989Z,14.14
2018-04-07T19:37:24.985Z,14.17
2018-04-07T19:39:54.127Z,14.17
2018-04-07T19:42:24.922Z,14.20
2018-04-07T19:44:54.424Z,14.18
2018-04-07T19:47:24.780Z,14.25
2018-04-07T19:49:57.933Z,14.24
2018-04-07T19:52:26.952Z,14.23
2018-04-07T19:54:56.796Z,14.25
2018-04-07T19:57:25.803Z,14.27
2018-04-07T19:59:54.946Z,14.30
2018-04-07T20:02:25.005Z,14.34
2018-04-07T20:04:55.775Z,14.39
2018-04-07T20:07:32.881Z,14.42
2018-04-07T20:10:02.224Z,14.45
2018-04-07T20:12:31.126Z,14.43
2018-04-07T20:15:00.161Z,14.39
2018-04-07T20:17:29.289Z,14.44
2018-04-07T20:19:58.251Z,14.42
2018-04-07T20:22:27.378Z,14.45
2018-04-07T20:24:57.456Z,14.46
2018-04-07T20:27:27.299Z,14.39
2018-04-07T20:29:57.116Z,14.39
2018-04-07T20:32:26.398Z,14.48
2018-04-07T20:34:55.453Z,14.58
2018-04-07T20:37:24.586Z,14.58
2018-04-07T20:39:54.514Z,14.62
2018-04-07T20:42:28.715Z,14.61
2018-04-07T20:44:57.914Z,14.67
2018-04-07T20:47:26.914Z,14.72
2018-04-07T20:49:56.066Z,14.66
2018-04-07T20:52:25.202Z,14.62
2018-04-07T20:54:55.062Z,14.64
2018-04-07T20:57:24.215Z,14.68
2018-04-07T20:59:54.171Z,14.59
2018-04-07T21:02:23.230Z,14.58
2018-04-07T21:04:55.850Z,14.60
2018-04-07T21:07:24.975Z,14.56
2018-04-07T21:09:54.064Z,14.51
2018-04-07T21:12:23.207Z,14.43
2018-04-07T21:14:52.293Z,14.41
2018-04-07T21:17:22.863Z,14.33
2018-04-07T21:19:53.879Z,14.27
2018-04-07T21:22:22.864Z,14.14
2018-04-07T21:24:51.801Z,14.14
2018-04-07T21:27:24.002Z,14.16
2018-04-07T21:29:53.174Z,14.15
2018-04-07T21:32:22.472Z,14.12
2018-04-07T21:34:51.751Z,14.07
2018-04-07T21:37:21.743Z,14.01
2018-04-07T21:39:50.735Z,13.96
2018-04-07T21:42:19.794Z,13.99
2018-04-07T21:44:48.866Z,13.92
2018-04-07T21:47:17.822Z,13.95
2018-04-07T21:49:48.145Z,13.93
2018-04-07T21:52:17.160Z,13.80
2018-04-07T21:54:46.310Z,13.78
2018-04-07T21:59:53.054Z,13.67
2018-04-07T22:02:22.434Z,13.54
2018-04-07T22:04:51.559Z,13.49
2018-04-07T22:07:21.481Z,13.48
2018-04-07T22:09:51.029Z,13.50
2018-04-07T22:12:20.989Z,13.58
2018-04-07T22:14:50.070Z,13.73
2018-04-07T22:17:19.995Z,13.78
2018-04-07T22:19:52.122Z,13.86
2018-04-07T22:22:21.097Z,13.90
2018-04-07T22:24:50.373Z,13.90
2018-04-07T22:27:20.354Z,13.94
2018-04-07T22:29:51.093Z,13.91
2018-04-07T22:32:21.017Z,13.84
2018-04-07T22:34:50.923Z,13.86
2018-04-07T22:37:22.479Z,13.89
2018-04-07T22:39:51.783Z,13.86
2018-04-07T22:42:20.913Z,13.94
2018-04-07T22:44:50.171Z,13.92
2018-04-07T22:47:19.928Z,13.96
2018-04-07T22:49:49.136Z,14.06
2018-04-07T22:52:18.156Z,14.04
2018-04-07T22:54:47.326Z,14.07
2018-04-07T22:57:18.118Z,14.08
2018-04-07T22:59:47.373Z,14.10
2018-04-07T23:02:18.129Z,14.13
2018-04-07T23:04:47.196Z,14.18
2018-04-07T23:07:17.072Z,14.15
2018-04-07T23:09:47.800Z,14.18
2018-04-07T23:12:16.935Z,14.16
2018-04-07T23:14:46.226Z,14.22
2018-04-07T23:17:17.453Z,14.19
2018-04-07T23:19:46.616Z,14.12
2018-04-07T23:22:17.519Z,14.15
2018-04-07T23:24:49.285Z,14.15
2018-04-07T23:27:19.513Z,14.15
2018-04-07T23:29:48.535Z,14.19
2018-04-07T23:32:23.732Z,14.25
2018-04-07T23:34:52.779Z,14.26
2018-04-07T23:37:22.681Z,14.29
2018-04-07T23:39:52.234Z,14.33
2018-04-07T23:42:21.339Z,14.32
2018-04-07T23:44:50.393Z,14.36
2018-04-07T23:47:20.408Z,14.45
2018-04-07T23:49:49.442Z,14.50
2018-04-07T23:52:18.490Z,14.45
2018-04-07T23:54:47.724Z,14.41
2018-04-07T23:57:17.821Z,14.39
2018-04-07T23:59:47.207Z,14.38
